London, Minnesota
Current Conditions -  °F | °C
As of 4:53 AM on Sunday 23 Nov 2014 (Local Time) from KAEL Reporting Station
Haze Haze  
Wind Chill: 50°   Ceiling: 400
Heat Index: 50°   Visibility: 2.5mi
Dew Point: 50°   Wind: 12mph
Humidity: 100%   Direction: 190°S
Pressure: 29.47"   Gusts: 16mph
Location:  43.5439°N, 93.1707°W
Report Text: KAEL 231053Z AUTO 19010G14KT 2 1/2SM BR OVC004 10/10 A2947 RMK AO2
Loading
Personal Weather Stations






























Interactive Weather Map New forecast layout! Learn more

10-Day Weather Forecast

Advertisements
Track Severe Weather on mobile